Time,TemperatureF,DewpointF,PressureIn,WindDirection,WindDirectionDegrees,WindSpeedMPH,WindSpeedGustMPH,Humidity,HourlyPrecipIn,Conditions,Clouds,dailyrainin,SolarRadiationWatts/m^2,SoftwareType,DateUTC
2013-02-03 00:01:00,40.0,10.0,30.28,North,9,4.0,5.0,28,-99.99,,,-99.99,0.000000,,2013-02-03 07:01:00,
2013-02-03 00:11:00,39.0,10.0,30.28,NNE,13,4.0,5.0,29,-99.99,,,-99.99,0.000000,,2013-02-03 07:11:00,
2013-02-03 00:21:00,39.0,10.0,30.28,NNE,13,4.0,5.0,29,-99.99,,,-99.99,0.000000,,2013-02-03 07:21:00,
2013-02-03 00:31:00,39.0,10.0,30.27,NE,43,4.0,6.0,28,-99.99,,,-99.99,0.000000,,2013-02-03 07:31:00,
2013-02-03 00:42:00,39.0,10.0,30.27,East,80,4.0,6.0,30,-99.99,,,-99.99,0.000000,,2013-02-03 07:42:00,
2013-02-03 00:52:00,39.0,10.0,30.27,East,80,4.0,6.0,30,-99.99,,,-99.99,0.000000,,2013-02-03 07:52:00,
2013-02-03 01:01:00,39.0,11.0,30.26,ESE,108,5.0,7.0,30,-99.99,,,-99.99,0.000000,,2013-02-03 08:01:00,
2013-02-03 01:11:00,37.0,9.0,30.26,SSE,152,1.0,5.0,32,-99.99,,,-99.99,0.000000,,2013-02-03 08:11:00,
2013-02-03 01:22:00,37.0,9.0,30.26,SSE,152,1.0,5.0,32,-99.99,,,-99.99,0.000000,,2013-02-03 08:22:00,
2013-02-03 01:32:00,35.0,9.0,30.25,South,185,1.0,2.0,33,-99.99,,,-99.99,0.000000,,2013-02-03 08:32:00,
2013-02-03 01:41:00,37.0,11.0,30.25,South,188,0.0,2.0,32,-99.99,,,-99.99,0.000000,,2013-02-03 08:41:00,
2013-02-03 01:52:00,37.0,11.0,30.25,South,188,0.0,2.0,32,-99.99,,,-99.99,0.000000,,2013-02-03 08:52:00,
2013-02-03 02:02:00,38.0,11.0,30.25,SSW,192,0.0,1.0,31,-99.99,,,-99.99,0.000000,,2013-02-03 09:02:00,
2013-02-03 02:11:00,36.0,10.0,30.25,SSW,207,0.0,1.0,33,-99.99,,,-99.99,0.000000,,2013-02-03 09:11:00,
2013-02-03 02:21:00,36.0,10.0,30.25,SSW,207,0.0,1.0,33,-99.99,,,-99.99,0.000000,,2013-02-03 09:21:00,
2013-02-03 02:31:00,37.0,10.0,30.25,West,268,1.0,2.0,33,-99.99,,,-99.99,0.000000,,2013-02-03 09:31:00,
2013-02-03 02:42:00,37.0,10.0,30.25,West,281,1.0,4.0,32,-99.99,,,-99.99,0.000000,,2013-02-03 09:42:00,
2013-02-03 02:52:00,37.0,10.0,30.25,West,281,1.0,4.0,32,-99.99,,,-99.99,0.000000,,2013-02-03 09:52:00,
2013-02-03 03:01:00,37.0,10.0,30.24,NE,44,4.0,5.0,32,-99.99,,,-99.99,0.000000,,2013-02-03 10:01:00,
2013-02-03 03:11:00,36.0,10.0,30.24,ENE,60,4.0,5.0,33,-99.99,,,-99.99,0.000000,,2013-02-03 10:11:00,
2013-02-03 03:21:00,36.0,10.0,30.24,ENE,60,4.0,5.0,33,-99.99,,,-99.99,0.000000,,2013-02-03 10:21:00,
2013-02-03 03:31:00,35.0,10.0,30.24,ENE,66,3.0,5.0,34,-99.99,,,-99.99,0.000000,,2013-02-03 10:31:00,
2013-02-03 03:42:00,36.0,10.0,30.23,NE,56,2.0,4.0,33,-99.99,,,-99.99,0.000000,,2013-02-03 10:42:00,
2013-02-03 03:52:00,36.0,10.0,30.23,NE,56,2.0,4.0,33,-99.99,,,-99.99,0.000000,,2013-02-03 10:52:00,
2013-02-03 04:02:00,35.0,10.0,30.23,NE,56,2.0,4.0,34,-99.99,,,-99.99,0.000000,,2013-02-03 11:02:00,
2013-02-03 04:11:00,33.0,10.0,30.23,NE,40,2.0,5.0,36,-99.99,,,-99.99,0.000000,,2013-02-03 11:11:00,
2013-02-03 04:22:00,33.0,10.0,30.23,NE,40,2.0,5.0,36,-99.99,,,-99.99,0.000000,,2013-02-03 11:22:00,
2013-02-03 04:32:00,33.0,10.0,30.23,NNE,13,3.0,5.0,36,-99.99,,,-99.99,0.000000,,2013-02-03 11:32:00,
2013-02-03 04:42:00,33.0,10.0,30.23,NNW,344,5.0,7.0,36,-99.99,,,-99.99,0.000000,,2013-02-03 11:42:00,
2013-02-03 04:52:00,33.0,10.0,30.23,NNW,344,5.0,7.0,36,-99.99,,,-99.99,0.000000,,2013-02-03 11:52:00,
2013-02-03 05:02:00,32.0,9.0,30.23,NNW,342,6.0,7.0,38,-99.99,,,-99.99,0.000000,,2013-02-03 12:02:00,
2013-02-03 05:11:00,32.0,9.0,30.22,North,358,6.0,8.0,37,-99.99,,,-99.99,0.000000,,2013-02-03 12:11:00,
2013-02-03 05:22:00,32.0,9.0,30.22,North,358,6.0,8.0,37,-99.99,,,-99.99,0.000000,,2013-02-03 12:22:00,
2013-02-03 05:32:00,32.0,9.0,30.22,North,9,4.0,5.0,37,-99.99,,,-99.99,0.000000,,2013-02-03 12:32:00,
2013-02-03 05:42:00,32.0,9.0,30.22,NNE,13,5.0,6.0,38,-99.99,,,-99.99,0.000000,,2013-02-03 12:42:00,
2013-02-03 05:53:00,32.0,9.0,30.22,NNE,13,5.0,6.0,38,-99.99,,,-99.99,0.000000,,2013-02-03 12:53:00,
2013-02-03 06:03:00,31.0,9.0,30.22,North,4,5.0,6.0,39,-99.99,,,-99.99,0.000000,,2013-02-03 13:03:00,
2013-02-03 06:11:00,32.0,10.0,30.22,NNE,12,6.0,8.0,38,-99.99,,,-99.99,0.000000,,2013-02-03 13:11:00,
2013-02-03 06:21:00,32.0,10.0,30.22,NNE,12,6.0,8.0,38,-99.99,,,-99.99,0.000000,,2013-02-03 13:21:00,
2013-02-03 06:32:00,32.0,10.0,30.21,NNE,17,6.0,7.0,38,-99.99,,,-99.99,0.000000,,2013-02-03 13:32:00,
2013-02-03 06:42:00,32.0,10.0,30.21,NNE,20,6.0,7.0,39,-99.99,,,-99.99,0.000000,,2013-02-03 13:42:00,
2013-02-03 06:52:00,32.0,10.0,30.21,NNE,20,6.0,7.0,39,-99.99,,,-99.99,0.000000,,2013-02-03 13:52:00,
2013-02-03 07:02:00,32.0,10.0,30.21,NNE,23,6.0,7.0,39,-99.99,,,-99.99,0.000000,,2013-02-03 14:02:00,
2013-02-03 07:11:00,32.0,10.0,30.21,NE,37,4.0,6.0,40,-99.99,,,-99.99,0.000000,,2013-02-03 14:11:00,
2013-02-03 07:21:00,32.0,10.0,30.21,NE,37,4.0,6.0,40,-99.99,,,-99.99,0.000000,,2013-02-03 14:21:00,
2013-02-03 07:32:00,32.0,10.0,30.21,NE,44,5.0,6.0,39,-99.99,,,-99.99,1.390000,,2013-02-03 14:32:00,
2013-02-03 07:42:00,32.0,10.0,30.21,NE,39,4.0,5.0,39,-99.99,,,-99.99,6.280000,,2013-02-03 14:42:00,
2013-02-03 07:52:00,32.0,10.0,30.21,NE,39,4.0,5.0,39,-99.99,,,-99.99,6.280000,,2013-02-03 14:52:00,
2013-02-03 08:03:00,33.0,11.0,30.21,NNE,22,5.0,6.0,39,-99.99,,,-99.99,20.219999,,2013-02-03 15:03:00,
2013-02-03 08:11:00,33.0,11.0,30.21,NNE,12,4.0,6.0,38,-99.99,,,-99.99,36.959999,,2013-02-03 15:11:00,
2013-02-03 08:22:00,33.0,11.0,30.21,NNE,12,4.0,6.0,38,-99.99,,,-99.99,36.959999,,2013-02-03 15:22:00,
2013-02-03 08:33:00,34.0,11.0,30.21,North,9,4.0,5.0,37,-99.99,,,-99.99,57.180000,,2013-02-03 15:33:00,
2013-02-03 08:42:00,35.0,11.0,30.21,NNE,23,4.0,6.0,36,-99.99,,,-99.99,101.110001,,2013-02-03 15:42:00,
2013-02-03 08:52:00,35.0,11.0,30.21,NNE,23,4.0,6.0,36,-99.99,,,-99.99,101.110001,,2013-02-03 15:52:00,
2013-02-03 09:02:00,36.0,11.0,30.20,NNE,31,5.0,6.0,34,-99.99,,,-99.99,84.379997,,2013-02-03 16:02:00,
2013-02-03 09:11:00,38.0,12.0,30.19,NE,38,4.0,5.0,33,-99.99,,,-99.99,119.940002,,2013-02-03 16:11:00,
2013-02-03 09:22:00,38.0,12.0,30.19,NE,38,4.0,5.0,33,-99.99,,,-99.99,119.940002,,2013-02-03 16:22:00,
2013-02-03 09:32:00,40.0,12.0,30.19,NE,35,4.0,5.0,32,-99.99,,,-99.99,128.309998,,2013-02-03 16:32:00,
2013-02-03 09:42:00,41.0,13.0,30.19,NE,48,4.0,5.0,30,-99.99,,,-99.99,141.559998,,2013-02-03 16:42:00,
2013-02-03 09:52:00,41.0,13.0,30.19,NE,48,4.0,5.0,30,-99.99,,,-99.99,141.559998,,2013-02-03 16:52:00,
2013-02-03 10:02:00,43.0,13.0,30.19,NE,44,4.0,5.0,29,-99.99,,,-99.99,194.559998,,2013-02-03 17:02:00,
2013-02-03 10:11:00,45.0,14.0,30.19,NE,34,4.0,6.0,28,-99.99,,,-99.99,243.369995,,2013-02-03 17:11:00,
2013-02-03 10:22:00,45.0,14.0,30.19,NE,34,4.0,6.0,28,-99.99,,,-99.99,243.369995,,2013-02-03 17:22:00,
2013-02-03 10:32:00,47.0,15.0,30.19,NNE,26,4.0,5.0,27,-99.99,,,-99.99,308.920013,,2013-02-03 17:32:00,
2013-02-03 10:42:00,49.0,16.0,30.19,NNE,22,3.0,4.0,26,-99.99,,,-99.99,371.679993,,2013-02-03 17:42:00,
2013-02-03 10:52:00,49.0,16.0,30.19,NNE,22,3.0,4.0,26,-99.99,,,-99.99,371.679993,,2013-02-03 17:52:00,
2013-02-03 11:03:00,51.0,16.0,30.18,NNE,17,2.0,5.0,25,-99.99,,,-99.99,296.369995,,2013-02-03 18:03:00,
2013-02-03 11:12:00,51.0,17.0,30.18,NNE,14,2.0,4.0,25,-99.99,,,-99.99,298.459991,,2013-02-03 18:12:00,
2013-02-03 11:23:00,51.0,17.0,30.18,NNE,14,2.0,4.0,25,-99.99,,,-99.99,298.459991,,2013-02-03 18:23:00,
2013-02-03 11:32:00,52.0,17.0,30.17,NNE,14,2.0,5.0,24,-99.99,,,-99.99,323.559998,,2013-02-03 18:32:00,
2013-02-03 11:42:00,53.0,17.0,30.16,North,9,3.0,5.0,24,-99.99,,,-99.99,310.309998,,2013-02-03 18:42:00,
2013-02-03 11:52:00,53.0,17.0,30.16,North,9,3.0,5.0,24,-99.99,,,-99.99,310.309998,,2013-02-03 18:52:00,
2013-02-03 12:02:00,53.0,17.0,30.15,North,8,3.0,5.0,23,-99.99,,,-99.99,262.890015,,2013-02-03 19:02:00,
2013-02-03 12:11:00,54.0,17.0,30.14,North,11,2.0,3.0,22,-99.99,,,-99.99,272.660004,,2013-02-03 19:11:00,
2013-02-03 12:22:00,54.0,17.0,30.14,North,11,2.0,3.0,22,-99.99,,,-99.99,272.660004,,2013-02-03 19:22:00,
2013-02-03 12:32:00,55.0,17.0,30.12,NNE,16,3.0,6.0,22,-99.99,,,-99.99,253.130005,,2013-02-03 19:32:00,
2013-02-03 12:42:00,55.0,17.0,30.11,North,10,2.0,4.0,21,-99.99,,,-99.99,278.239990,,2013-02-03 19:42:00,
2013-02-03 12:52:00,55.0,17.0,30.11,North,10,2.0,4.0,21,-99.99,,,-99.99,278.239990,,2013-02-03 19:52:00,
2013-02-03 13:01:00,56.0,17.0,30.10,NNE,28,3.0,5.0,21,-99.99,,,-99.99,291.489990,,2013-02-03 20:01:00,
2013-02-03 13:12:00,57.0,17.0,30.09,North,354,0.0,2.0,20,-99.99,,,-99.99,327.049988,,2013-02-03 20:12:00,
2013-02-03 13:21:00,57.0,17.0,30.09,North,354,0.0,2.0,20,-99.99,,,-99.99,327.049988,,2013-02-03 20:21:00,
2013-02-03 13:32:00,58.0,17.0,30.08,ENE,63,1.0,4.0,19,-99.99,,,-99.99,428.160004,,2013-02-03 20:32:00,
2013-02-03 13:42:00,59.0,17.0,30.06,ESE,105,2.0,5.0,19,-99.99,,,-99.99,436.529999,,2013-02-03 20:42:00,
2013-02-03 13:52:00,59.0,17.0,30.06,ESE,105,2.0,5.0,19,-99.99,,,-99.99,436.529999,,2013-02-03 20:52:00,
2013-02-03 14:03:00,59.0,17.0,30.05,SE,134,2.0,6.0,19,-99.99,,,-99.99,315.890015,,2013-02-03 21:03:00,
2013-02-03 14:11:00,59.0,17.0,30.05,SE,145,2.0,5.0,19,-99.99,,,-99.99,337.510010,,2013-02-03 21:11:00,
2013-02-03 14:21:00,59.0,17.0,30.05,SE,145,2.0,5.0,19,-99.99,,,-99.99,337.510010,,2013-02-03 21:21:00,
2013-02-03 14:32:00,59.0,17.0,30.04,WSW,241,2.0,4.0,18,-99.99,,,-99.99,333.329987,,2013-02-03 21:32:00,
2013-02-03 14:42:00,59.0,17.0,30.03,WSW,246,2.0,5.0,18,-99.99,,,-99.99,257.320007,,2013-02-03 21:42:00,
2013-02-03 14:52:00,59.0,17.0,30.03,WSW,246,2.0,5.0,18,-99.99,,,-99.99,257.320007,,2013-02-03 21:52:00,
2013-02-03 15:01:00,60.0,17.0,30.02,West,261,3.0,6.0,18,-99.99,,,-99.99,317.980011,,2013-02-03 22:01:00,
2013-02-03 15:11:00,61.0,17.0,30.02,SW,232,2.0,7.0,17,-99.99,,,-99.99,417.700012,,2013-02-03 22:11:00,
2013-02-03 15:21:00,61.0,17.0,30.02,SW,232,2.0,7.0,17,-99.99,,,-99.99,417.700012,,2013-02-03 22:21:00,
2013-02-03 15:32:00,62.0,17.0,30.01,SW,233,1.0,4.0,17,-99.99,,,-99.99,318.679993,,2013-02-03 22:32:00,
2013-02-03 15:41:00,61.0,16.0,30.00,West,262,1.0,5.0,17,-99.99,,,-99.99,246.860001,,2013-02-03 22:41:00,
2013-02-03 15:52:00,61.0,16.0,30.00,West,262,1.0,5.0,17,-99.99,,,-99.99,246.860001,,2013-02-03 22:52:00,
2013-02-03 16:01:00,61.0,16.0,30.00,SSW,194,1.0,4.0,17,-99.99,,,-99.99,193.860001,,2013-02-03 23:01:00,
2013-02-03 16:12:00,61.0,16.0,29.99,South,184,1.0,3.0,17,-99.99,,,-99.99,164.570007,,2013-02-03 23:12:00,
2013-02-03 16:22:00,61.0,16.0,29.99,South,184,1.0,3.0,17,-99.99,,,-99.99,164.570007,,2013-02-03 23:22:00,
2013-02-03 16:32:00,61.0,16.0,29.99,ESE,119,1.0,3.0,17,-99.99,,,-99.99,138.070007,,2013-02-03 23:32:00,
2013-02-03 16:42:00,61.0,17.0,29.99,East,83,1.0,4.0,17,-99.99,,,-99.99,121.339996,,2013-02-03 23:42:00,
2013-02-03 16:52:00,61.0,17.0,29.99,East,83,1.0,4.0,17,-99.99,,,-99.99,121.339996,,2013-02-03 23:52:00,
2013-02-03 17:01:00,61.0,17.0,29.99,NE,42,1.0,3.0,17,-99.99,,,-99.99,89.260002,,2013-02-04 00:01:00,
2013-02-03 17:11:00,61.0,16.0,29.99,NNE,30,0.0,1.0,17,-99.99,,,-99.99,59.970001,,2013-02-04 00:11:00,
2013-02-03 17:22:00,61.0,16.0,29.99,NNE,30,0.0,1.0,17,-99.99,,,-99.99,59.970001,,2013-02-04 00:22:00,
2013-02-03 17:32:00,60.0,17.0,29.98,NNE,29,1.0,3.0,17,-99.99,,,-99.99,36.259998,,2013-02-04 00:32:00,
2013-02-03 17:41:00,60.0,17.0,29.98,NNE,29,1.0,2.0,18,-99.99,,,-99.99,23.709999,,2013-02-04 00:41:00,
2013-02-03 17:52:00,60.0,17.0,29.98,NNE,29,1.0,2.0,18,-99.99,,,-99.99,23.709999,,2013-02-04 00:52:00,
2013-02-03 18:01:00,60.0,17.0,29.98,NNE,29,1.0,2.0,18,-99.99,,,-99.99,23.709999,,2013-02-04 01:01:00,
2013-02-03 18:11:00,58.0,17.0,29.99,NW,324,5.0,8.0,19,-99.99,,,-99.99,1.390000,,2013-02-04 01:11:00,
2013-02-03 18:21:00,58.0,17.0,29.99,NW,324,5.0,8.0,19,-99.99,,,-99.99,1.390000,,2013-02-04 01:21:00,
2013-02-03 18:32:00,58.0,17.0,29.99,NNW,329,6.0,7.0,20,-99.99,,,-99.99,0.000000,,2013-02-04 01:32:00,
2013-02-03 18:41:00,57.0,17.0,29.99,North,350,4.0,7.0,20,-99.99,,,-99.99,0.000000,,2013-02-04 01:41:00,
2013-02-03 18:52:00,57.0,17.0,29.99,North,350,4.0,7.0,20,-99.99,,,-99.99,0.000000,,2013-02-04 01:52:00,
2013-02-03 19:02:00,57.0,17.0,29.99,North,9,4.0,5.0,20,-99.99,,,-99.99,0.000000,,2013-02-04 02:02:00,
2013-02-03 19:11:00,58.0,20.0,29.99,NNW,335,7.0,21.0,23,-99.99,,,-99.99,0.000000,,2013-02-04 02:11:00,
2013-02-03 19:21:00,58.0,20.0,29.99,NNW,335,7.0,21.0,23,-99.99,,,-99.99,0.000000,,2013-02-04 02:21:00,
2013-02-03 19:31:00,60.0,28.0,29.99,WSW,257,14.0,28.0,30,-99.99,,,-99.99,0.000000,,2013-02-04 02:31:00,
2013-02-03 19:41:00,58.0,26.0,30.00,WSW,248,13.0,22.0,29,-99.99,,,-99.99,0.000000,,2013-02-04 02:41:00,
2013-02-03 19:52:00,58.0,34.0,30.01,West,263,16.0,24.0,41,-99.99,,,-99.99,0.000000,,2013-02-04 02:52:00,
2013-02-03 20:02:00,58.0,34.0,30.01,West,263,16.0,24.0,41,-99.99,,,-99.99,0.000000,,2013-02-04 03:02:00,
2013-02-03 20:11:00,57.0,34.0,30.02,West,275,12.0,18.0,41,-99.99,,,-99.99,0.000000,,2013-02-04 03:11:00,
2013-02-03 20:21:00,57.0,34.0,30.02,West,275,12.0,18.0,41,-99.99,,,-99.99,0.000000,,2013-02-04 03:21:00,
2013-02-03 20:32:00,56.0,34.0,30.02,WSW,253,9.0,18.0,42,-99.99,,,-99.99,0.000000,,2013-02-04 03:32:00,
2013-02-03 20:42:00,57.0,31.0,30.01,SW,217,13.0,21.0,37,-99.99,,,-99.99,0.000000,,2013-02-04 03:42:00,
2013-02-03 20:52:00,57.0,31.0,30.01,SW,217,13.0,21.0,37,-99.99,,,-99.99,0.000000,,2013-02-04 03:52:00,
2013-02-03 21:01:00,56.0,32.0,30.01,SSW,195,7.0,14.0,40,-99.99,,,-99.99,0.000000,,2013-02-04 04:01:00,
2013-02-03 21:11:00,57.0,33.0,30.00,SW,215,8.0,15.0,40,-99.99,,,-99.99,0.000000,,2013-02-04 04:11:00,
2013-02-03 21:21:00,57.0,33.0,30.00,SW,215,8.0,15.0,40,-99.99,,,-99.99,0.000000,,2013-02-04 04:21:00,
2013-02-03 21:32:00,57.0,33.0,29.99,SW,223,7.0,16.0,39,-99.99,,,-99.99,0.000000,,2013-02-04 04:32:00,
2013-02-03 21:41:00,57.0,33.0,29.99,ESE,111,5.0,8.0,39,-99.99,,,-99.99,0.000000,,2013-02-04 04:41:00,
2013-02-03 21:52:00,57.0,33.0,29.99,ESE,111,5.0,8.0,39,-99.99,,,-99.99,0.000000,,2013-02-04 04:52:00,
2013-02-03 22:03:00,56.0,33.0,29.98,East,83,5.0,7.0,41,-99.99,,,-99.99,0.000000,,2013-02-04 05:03:00,
2013-02-03 22:11:00,55.0,32.0,29.97,ENE,71,6.0,9.0,41,-99.99,,,-99.99,0.000000,,2013-02-04 05:11:00,
2013-02-03 22:22:00,55.0,32.0,29.97,ENE,71,6.0,9.0,41,-99.99,,,-99.99,0.000000,,2013-02-04 05:22:00,
2013-02-03 22:33:00,56.0,32.0,29.96,NNE,15,6.0,11.0,40,-99.99,,,-99.99,0.000000,,2013-02-04 05:33:00,
2013-02-03 22:42:00,57.0,31.0,29.96,NW,321,10.0,18.0,36,-99.99,,,-99.99,0.000000,,2013-02-04 05:42:00,
2013-02-03 22:52:00,57.0,31.0,29.96,NW,321,10.0,18.0,36,-99.99,,,-99.99,0.000000,,2013-02-04 05:52:00,
2013-02-03 23:02:00,58.0,28.0,29.95,NW,324,14.0,22.0,32,-99.99,,,-99.99,0.000000,,2013-02-04 06:02:00,
2013-02-03 23:11:00,57.0,28.0,29.96,NW,310,11.0,17.0,32,-99.99,,,-99.99,0.000000,,2013-02-04 06:11:00,
2013-02-03 23:21:00,57.0,28.0,29.96,NW,310,11.0,17.0,32,-99.99,,,-99.99,0.000000,,2013-02-04 06:21:00,
2013-02-03 23:32:00,57.0,28.0,29.96,WNW,301,12.0,20.0,32,-99.99,,,-99.99,0.000000,,2013-02-04 06:32:00,
2013-02-03 23:42:00,57.0,28.0,29.96,NW,307,8.0,15.0,32,-99.99,,,-99.99,0.000000,,2013-02-04 06:42:00,
2013-02-03 23:52:00,57.0,28.0,29.96,NW,307,8.0,15.0,32,-99.99,,,-99.99,0.000000,,2013-02-04 06:52:00,